^^
Station Historical Data
Daily Summary for June 10, 2017 Units:  Both    English   Metric
« Previous Day
Next Day »
Daily Weekly Monthly Yearly Custom
  High: Low: Average:
Temperature: 72.7 °F /  22.6 °C 40.5 °F /  4.7 °C 55.6 °F /  13.1 °C
Dew Point: 39.6 °F /  4.2 °C 29.3 °F /  -1.5 °C 34.8 °F /  1.6 °C
Humidity: 75% 26% 48%
Wind Speed: 8.1mph /  13km/h - 0.8mph /  1.3km/h
Wind Gust: 15.0mph /  24.1km/h - -
Wind- - SW
Pressure: 30.37 in /  1028.3 hPa 30.25 in /  1024.3 hPa -
Precipitation: 0.00 in /  0 mm    
Historical Graphs
 
 
Tabular Data for June 10, 2017
Time Temperature Dew Point Pressure Wind Wind Speed Wind Gust Humidity Rainfall Rate (Hourly) solar Conditions
00:06 46.0 °F /  7.8 °C 29.5 °F /  -1.4 °C 30.37in /  1028.3hPa Calm     52% 0.00in /  0mm 0.0 W/m2
00:12 45.9 °F /  7.7 °C 29.3 °F /  -1.5 °C 30.37in /  1028.3hPa Calm     52% 0.00in /  0mm 0.0 W/m2
00:18 45.7 °F /  7.6 °C 29.5 °F /  -1.4 °C 30.37in /  1028.3hPa Calm     53% 0.00in /  0mm 0.0 W/m2
00:24 45.5 °F /  7.5 °C 29.8 °F /  -1.2 °C 30.36in /  1028hPa Calm     54% 0.00in /  0mm 0.0 W/m2
00:30 45.3 °F /  7.4 °C 29.7 °F /  -1.3 °C 30.36in /  1028hPa Calm     54% 0.00in /  0mm 0.0 W/m2
00:36 45.1 °F /  7.3 °C 30.0 °F /  -1.1 °C 30.36in /  1028hPa Calm     55% 0.00in /  0mm 0.0 W/m2
00:44 45.0 °F /  7.2 °C 29.8 °F /  -1.2 °C 30.37in /  1028.3hPa Calm     55% 0.00in /  0mm 0.0 W/m2
00:50 45.0 °F /  7.2 °C 29.8 °F /  -1.2 °C 30.37in /  1028.3hPa Calm     55% 0.00in /  0mm 0.0 W/m2
00:56 44.8 °F /  7.1 °C 30.0 °F /  -1.1 °C 30.36in /  1028hPa Calm     56% 0.00in /  0mm 0.0 W/m2
01:03 44.6 °F /  7 °C 29.8 °F /  -1.2 °C 30.37in /  1028.3hPa Calm   1.0mph /  1.6km/h 56% 0.00in /  0mm 0.0 W/m2
01:09 44.4 °F /  6.9 °C 29.7 °F /  -1.3 °C 30.37in /  1028.3hPa Calm     56% 0.00in /  0mm 0.0 W/m2
01:15 44.2 °F /  6.8 °C 30.0 °F /  -1.1 °C 30.37in /  1028.3hPa Calm     57% 0.00in /  0mm 0.0 W/m2
01:21 44.2 °F /  6.8 °C 30.0 °F /  -1.1 °C 30.37in /  1028.3hPa Calm     57% 0.00in /  0mm 0.0 W/m2
01:27 44.1 °F /  6.7 °C 29.8 °F /  -1.2 °C 30.37in /  1028.3hPa Calm     57% 0.00in /  0mm 0.0 W/m2
01:29 44.1 °F /  6.7 °C 29.8 °F /  -1.2 °C 30.37in /  1028.3hPa Calm     57% 0.00in /  0mm 0.0 W/m2
01:33 44.1 °F /  6.7 °C 30.2 °F /  -1 °C 30.37in /  1028.3hPa Calm     58% 0.00in /  0mm 0.0 W/m2
01:39 43.9 °F /  6.6 °C 30.0 °F /  -1.1 °C 30.37in /  1028.3hPa Calm     58% 0.00in /  0mm 0.0 W/m2
01:44 43.9 °F /  6.6 °C 30.0 °F /  -1.1 °C 30.37in /  1028.3hPa Calm     58% 0.00in /  0mm 0.0 W/m2
01:49 43.7 °F /  6.5 °C 30.4 °F /  -0.9 °C 30.37in /  1028.3hPa Calm     59% 0.00in /  0mm 0.0 W/m2
01:55 43.5 °F /  6.4 °C 30.2 °F /  -1 °C 30.37in /  1028.3hPa Calm     59% 0.00in /  0mm 0.0 W/m2
02:01 43.5 °F /  6.4 °C 30.2 °F /  -1 °C 30.37in /  1028.3hPa Calm     59% 0.00in /  0mm 0.0 W/m2
02:07 43.3 °F /  6.3 °C 30.4 °F /  -0.9 °C 30.37in /  1028.3hPa Calm     60% 0.00in /  0mm 0.0 W/m2
02:13 43.2 °F /  6.2 °C 30.2 °F /  -1 °C 30.36in /  1028hPa Calm   1.0mph /  1.6km/h 60% 0.00in /  0mm 0.0 W/m2
02:19 43.2 °F /  6.2 °C 30.6 °F /  -0.8 °C 30.36in /  1028hPa Calm     61% 0.00in /  0mm 0.0 W/m2
02:25 43.0 °F /  6.1 °C 30.4 °F /  -0.9 °C 30.36in /  1028hPa Calm     61% 0.00in /  0mm 0.0 W/m2
02:32 43.0 °F /  6.1 °C 30.4 °F /  -0.9 °C 30.36in /  1028hPa Calm   1.0mph /  1.6km/h 61% 0.00in /  0mm 0.0 W/m2
02:38 42.6 °F /  5.9 °C 30.6 °F /  -0.8 °C 30.36in /  1028hPa Calm     62% 0.00in /  0mm 0.0 W/m2
02:44 42.6 °F /  5.9 °C 30.6 °F /  -0.8 °C 30.36in /  1028hPa Calm   1.0mph /  1.6km/h 62% 0.00in /  0mm 0.0 W/m2
02:50 42.4 °F /  5.8 °C 30.4 °F /  -0.9 °C 30.35in /  1027.7hPa Calm   1.0mph /  1.6km/h 62% 0.00in /  0mm 0.0 W/m2
02:56 42.4 °F /  5.8 °C 30.4 °F /  -0.9 °C 30.35in /  1027.7hPa Calm     62% 0.00in /  0mm 0.0 W/m2
03:02 42.6 °F /  5.9 °C 30.6 °F /  -0.8 °C 30.34in /  1027.3hPa SE 0.9mph /  1.4km/h 1.0mph /  1.6km/h 62% 0.00in /  0mm 0.0 W/m2
03:09 42.6 °F /  5.9 °C 30.9 °F /  -0.6 °C 30.34in /  1027.3hPa Calm   1.0mph /  1.6km/h 63% 0.00in /  0mm 0.0 W/m2
03:15 42.8 °F /  6 °C 31.1 °F /  -0.5 °C 30.34in /  1027.3hPa Calm   1.0mph /  1.6km/h 63% 0.00in /  0mm 0.0 W/m2
03:21 43.0 °F /  6.1 °C 30.9 °F /  -0.6 °C 30.34in /  1027.3hPa Calm   2.0mph /  3.2km/h 62% 0.00in /  0mm 0.0 W/m2
03:27 43.0 °F /  6.1 °C 31.3 °F /  -0.4 °C 30.34in /  1027.3hPa Calm   1.0mph /  1.6km/h 63% 0.00in /  0mm 0.0 W/m2
03:33 43.0 °F /  6.1 °C 31.3 °F /  -0.4 °C 30.34in /  1027.3hPa ENE 0.9mph /  1.4km/h 1.0mph /  1.6km/h 63% 0.00in /  0mm 0.0 W/m2
03:39 43.2 °F /  6.2 °C 31.5 °F /  -0.3 °C 30.34in /  1027.3hPa Calm   1.0mph /  1.6km/h 63% 0.00in /  0mm 0.0 W/m2
03:45 43.3 °F /  6.3 °C 31.3 °F /  -0.4 °C 30.34in /  1027.3hPa Calm   1.0mph /  1.6km/h 62% 0.00in /  0mm 0.0 W/m2
03:52 43.0 °F /  6.1 °C 30.9 °F /  -0.6 °C 30.34in /  1027.3hPa Calm     62% 0.00in /  0mm 0.0 W/m2
03:58 42.8 °F /  6 °C 30.7 °F /  -0.7 °C 30.34in /  1027.3hPa Calm     62% 0.00in /  0mm 0.0 W/m2
04:04 42.6 °F /  5.9 °C 30.9 °F /  -0.6 °C 30.34in /  1027.3hPa Calm     63% 0.00in /  0mm 0.0 W/m2
04:10 42.4 °F /  5.8 °C 30.7 °F /  -0.7 °C 30.34in /  1027.3hPa Calm     63% 0.00in /  0mm 0.0 W/m2
04:22 41.7 °F /  5.4 °C 30.7 °F /  -0.7 °C 30.34in /  1027.3hPa Calm   1.0mph /  1.6km/h 65% 0.00in /  0mm 0.0 W/m2
04:28 41.5 °F /  5.3 °C 30.7 °F /  -0.7 °C 30.34in /  1027.3hPa Calm   2.0mph /  3.2km/h 65% 0.00in /  0mm 0.0 W/m2
04:35 41.4 °F /  5.2 °C 30.9 °F /  -0.6 °C 30.34in /  1027.3hPa Calm     66% 0.00in /  0mm 0.0 W/m2
04:41 41.4 °F /  5.2 °C 31.3 °F /  -0.4 °C 30.34in /  1027.3hPa Calm     67% 0.00in /  0mm 0.0 W/m2
04:47 41.4 °F /  5.2 °C 31.3 °F /  -0.4 °C 30.34in /  1027.3hPa Calm     67% 0.00in /  0mm 0.0 W/m2
04:53 41.2 °F /  5.1 °C 31.5 °F /  -0.3 °C 30.33in /  1027hPa Calm     68% 0.00in /  0mm 0.0 W/m2
04:59 41.2 °F /  5.1 °C 31.5 °F /  -0.3 °C 30.33in /  1027hPa Calm   2.0mph /  3.2km/h 68% 0.00in /  0mm 0.0 W/m2
05:05 41.2 °F /  5.1 °C 31.5 °F /  -0.3 °C 30.34in /  1027.3hPa Calm   2.0mph /  3.2km/h 68% 0.00in /  0mm 0.0 W/m2
05:12 41.2 °F /  5.1 °C 31.5 °F /  -0.3 °C 30.34in /  1027.3hPa Calm   1.0mph /  1.6km/h 68% 0.00in /  0mm 0.0 W/m2
05:18 41.2 °F /  5.1 °C 31.8 °F /  -0.1 °C 30.34in /  1027.3hPa Calm     69% 0.00in /  0mm 0.0 W/m2
05:24 41.4 °F /  5.2 °C 32.4 °F /  0.2 °C 30.34in /  1027.3hPa Calm     70% 0.00in /  0mm 0.0 W/m2
05:30 41.4 °F /  5.2 °C 32.4 °F /  0.2 °C 30.34in /  1027.3hPa Calm     70% 0.00in /  0mm 0.0 W/m2
05:36 41.2 °F /  5.1 °C 32.2 °F /  0.1 °C 30.34in /  1027.3hPa Calm     70% 0.00in /  0mm 0.0 W/m2
05:42 41.2 °F /  5.1 °C 31.8 °F /  -0.1 °C 30.34in /  1027.3hPa Calm   1.0mph /  1.6km/h 69% 0.00in /  0mm 0.0 W/m2
05:49 41.0 °F /  5 °C 31.6 °F /  -0.2 °C 30.34in /  1027.3hPa Calm     69% 0.00in /  0mm 0.0 W/m2
05:55 40.8 °F /  4.9 °C 31.8 °F /  -0.1 °C 30.33in /  1027hPa Calm     70% 0.00in /  0mm 0.0 W/m2
06:01 40.6 °F /  4.8 °C 31.6 °F /  -0.2 °C 30.34in /  1027.3hPa Calm     70% 0.00in /  0mm 0.0 W/m2
06:07 40.6 °F /  4.8 °C 32.0 °F /  0 °C 30.33in /  1027hPa Calm     71% 0.00in /  0mm 0.0 W/m2
06:13 40.6 °F /  4.8 °C 32.0 °F /  0 °C 30.34in /  1027.3hPa Calm     71% 0.00in /  0mm 0.0 W/m2
06:19 40.6 °F /  4.8 °C 32.0 °F /  0 °C 30.34in /  1027.3hPa Calm     71% 0.00in /  0mm 0.0 W/m2
06:25 40.5 °F /  4.7 °C 31.8 °F /  -0.1 °C 30.34in /  1027.3hPa Calm     71% 0.00in /  0mm 0.0 W/m2
06:31 40.5 °F /  4.7 °C 31.8 °F /  -0.1 °C 30.34in /  1027.3hPa Calm     71% 0.00in /  0mm 5.0 W/m2
06:37 40.5 °F /  4.7 °C 32.2 °F /  0.1 °C 30.35in /  1027.7hPa Calm   1.0mph /  1.6km/h 72% 0.00in /  0mm 7.0 W/m2
06:44 40.5 °F /  4.7 °C 32.2 °F /  0.1 °C 30.35in /  1027.7hPa Calm   2.0mph /  3.2km/h 72% 0.00in /  0mm 11.0 W/m2
06:50 40.6 °F /  4.8 °C 32.4 °F /  0.2 °C 30.35in /  1027.7hPa Calm     72% 0.00in /  0mm 12.0 W/m2
06:56 40.8 °F /  4.9 °C 32.5 °F /  0.3 °C 30.36in /  1028hPa Calm     72% 0.00in /  0mm 14.0 W/m2
07:02 40.8 °F /  4.9 °C 32.9 °F /  0.5 °C 30.36in /  1028hPa Calm     73% 0.00in /  0mm 16.0 W/m2
07:08 41.0 °F /  5 °C 32.7 °F /  0.4 °C 30.36in /  1028hPa Calm     72% 0.00in /  0mm 18.0 W/m2
07:14 41.2 °F /  5.1 °C 33.3 °F /  0.7 °C 30.36in /  1028hPa Calm     73% 0.00in /  0mm 19.0 W/m2
07:21 41.2 °F /  5.1 °C 33.3 °F /  0.7 °C 30.36in /  1028hPa Calm     73% 0.00in /  0mm 21.0 W/m2
07:27 41.4 °F /  5.2 °C 33.4 °F /  0.8 °C 30.35in /  1027.7hPa Calm     73% 0.00in /  0mm 23.0 W/m2
07:29 41.5 °F /  5.3 °C 33.8 °F /  1 °C 30.35in /  1027.7hPa Calm     74% 0.00in /  0mm 23.0 W/m2
07:35 41.9 °F /  5.5 °C 34.2 °F /  1.2 °C 30.36in /  1028hPa Calm     74% 0.00in /  0mm 25.0 W/m2
07:41 42.3 °F /  5.7 °C 34.9 °F /  1.6 °C 30.36in /  1028hPa Calm     75% 0.00in /  0mm 26.0 W/m2
07:47 43.0 °F /  6.1 °C 35.6 °F /  2 °C 30.36in /  1028hPa Calm     75% 0.00in /  0mm 28.0 W/m2
07:53 44.4 °F /  6.9 °C 36.7 °F /  2.6 °C 30.36in /  1028hPa Calm     74% 0.00in /  0mm 127.0 W/m2
07:59 46.9 °F /  8.3 °C 37.2 °F /  2.9 °C 30.36in /  1028hPa Calm   1.0mph /  1.6km/h 69% 0.00in /  0mm 267.0 W/m2
08:06 49.6 °F /  9.8 °C 37.6 °F /  3.1 °C 30.36in /  1028hPa Calm   2.0mph /  3.2km/h 63% 0.00in /  0mm 292.0 W/m2
08:12 52.5 °F /  11.4 °C 37.2 °F /  2.9 °C 30.35in /  1027.7hPa Calm   2.0mph /  3.2km/h 56% 0.00in /  0mm 311.0 W/m2
08:18 55.0 °F /  12.8 °C 37.8 °F /  3.2 °C 30.35in /  1027.7hPa Calm   3.0mph /  4.8km/h 52% 0.00in /  0mm 334.0 W/m2
08:24 56.7 °F /  13.7 °C 37.8 °F /  3.2 °C 30.35in /  1027.7hPa NNE 0.9mph /  1.4km/h 3.0mph /  4.8km/h 49% 0.00in /  0mm 352.0 W/m2
08:30 58.3 °F /  14.6 °C 37.6 °F /  3.1 °C 30.35in /  1027.7hPa Calm   1.0mph /  1.6km/h 46% 0.00in /  0mm 371.0 W/m2
08:36 59.4 °F /  15.2 °C 37.9 °F /  3.3 °C 30.35in /  1027.7hPa NNW 0.9mph /  1.4km/h 3.0mph /  4.8km/h 45% 0.00in /  0mm 388.0 W/m2
08:43 60.3 °F /  15.7 °C 37.8 °F /  3.2 °C 30.35in /  1027.7hPa Calm   4.0mph /  6.4km/h 43% 0.00in /  0mm 406.0 W/m2
08:49 60.6 °F /  15.9 °C 37.9 °F /  3.3 °C 30.35in /  1027.7hPa Calm   1.0mph /  1.6km/h 43% 0.00in /  0mm 422.0 W/m2
09:01 61.9 °F /  16.6 °C 38.5 °F /  3.6 °C 30.36in /  1028hPa NNE 2.0mph /  3.2km/h 2.0mph /  3.2km/h 42% 0.00in /  0mm 455.0 W/m2
09:07 62.2 °F /  16.8 °C 38.3 °F /  3.5 °C 30.35in /  1027.7hPa Calm   2.0mph /  3.2km/h 41% 0.00in /  0mm 473.0 W/m2
09:13 62.8 °F /  17.1 °C 38.1 °F /  3.4 °C 30.36in /  1028hPa Calm   1.0mph /  1.6km/h 40% 0.00in /  0mm 487.0 W/m2
09:17 63.3 °F /  17.4 °C 37.9 °F /  3.3 °C 30.36in /  1028hPa WNW 4.9mph /  7.9km/h 5.0mph /  8km/h 39% 0.00in /  0mm 497.0 W/m2
09:23 63.9 °F /  17.7 °C 38.5 °F /  3.6 °C 30.36in /  1028hPa Calm     39% 0.00in /  0mm 510.0 W/m2
09:30 64.2 °F /  17.9 °C 38.1 °F /  3.4 °C 30.36in /  1028hPa Calm   1.0mph /  1.6km/h 38% 0.00in /  0mm 522.0 W/m2
09:36 64.8 °F /  18.2 °C 38.5 °F /  3.6 °C 30.35in /  1027.7hPa Calm     38% 0.00in /  0mm 536.0 W/m2
09:42 65.1 °F /  18.4 °C 38.8 °F /  3.8 °C 30.36in /  1028hPa Calm   4.0mph /  6.4km/h 38% 0.00in /  0mm 550.0 W/m2
09:48 65.5 °F /  18.6 °C 38.5 °F /  3.6 °C 30.36in /  1028hPa Calm   4.0mph /  6.4km/h 37% 0.00in /  0mm 564.0 W/m2
09:54 65.1 °F /  18.4 °C 38.1 °F /  3.4 °C 30.36in /  1028hPa NNW 2.9mph /  4.7km/h 4.0mph /  6.4km/h 37% 0.00in /  0mm 575.0 W/m2
10:00 65.5 °F /  18.6 °C 38.5 °F /  3.6 °C 30.36in /  1028hPa Calm   1.0mph /  1.6km/h 37% 0.00in /  0mm 584.0 W/m2
10:06 65.8 °F /  18.8 °C 38.8 °F /  3.8 °C 30.36in /  1028hPa WSW 0.9mph /  1.4km/h 3.0mph /  4.8km/h 37% 0.00in /  0mm 594.0 W/m2
10:12 66.2 °F /  19 °C 39.2 °F /  4 °C 30.36in /  1028hPa SW 0.9mph /  1.4km/h 3.0mph /  4.8km/h 37% 0.00in /  0mm 605.0 W/m2
10:18 66.6 °F /  19.2 °C 38.8 °F /  3.8 °C 30.35in /  1027.7hPa Calm   7.0mph /  11.3km/h 36% 0.00in /  0mm 621.0 W/m2
10:25 66.9 °F /  19.4 °C 39.0 °F /  3.9 °C 30.35in /  1027.7hPa Calm   2.0mph /  3.2km/h 36% 0.00in /  0mm 628.0 W/m2
10:37 67.6 °F /  19.8 °C 39.0 °F /  3.9 °C 30.35in /  1027.7hPa Calm   15.0mph /  24.1km/h 35% 0.00in /  0mm 643.0 W/m2
10:43 68.2 °F /  20.1 °C 38.7 °F /  3.7 °C 30.35in /  1027.7hPa Calm   7.0mph /  11.3km/h 34% 0.00in /  0mm 649.0 W/m2
10:49 68.7 °F /  20.4 °C 39.2 °F /  4 °C 30.36in /  1028hPa Calm   3.0mph /  4.8km/h 34% 0.00in /  0mm 656.0 W/m2
10:55 69.1 °F /  20.6 °C 39.6 °F /  4.2 °C 30.35in /  1027.7hPa NNW 6.9mph /  11.1km/h 10.0mph /  16.1km/h 34% 0.00in /  0mm 663.0 W/m2
11:01 69.1 °F /  20.6 °C 38.8 °F /  3.8 °C 30.34in /  1027.3hPa NW 0.9mph /  1.4km/h 10.0mph /  16.1km/h 33% 0.00in /  0mm 666.0 W/m2
11:10 69.3 °F /  20.7 °C 38.8 °F /  3.8 °C 30.34in /  1027.3hPa NW 0.9mph /  1.4km/h 12.0mph /  19.3km/h 33% 0.00in /  0mm 663.0 W/m2
11:16 69.6 °F /  20.9 °C 38.5 °F /  3.6 °C 30.34in /  1027.3hPa WNW 0.9mph /  1.4km/h 9.0mph /  14.5km/h 32% 0.00in /  0mm 675.0 W/m2
11:22 69.8 °F /  21 °C 38.7 °F /  3.7 °C 30.34in /  1027.3hPa North 2.0mph /  3.2km/h 8.0mph /  12.9km/h 32% 0.00in /  0mm 675.0 W/m2
11:28 70.3 °F /  21.3 °C 39.0 °F /  3.9 °C 30.33in /  1027hPa NNW 6.9mph /  11.1km/h 9.0mph /  14.5km/h 32% 0.00in /  0mm 689.0 W/m2
11:34 70.5 °F /  21.4 °C 38.5 °F /  3.6 °C 30.33in /  1027hPa North 6.0mph /  9.7km/h 9.0mph /  14.5km/h 31% 0.00in /  0mm 682.0 W/m2
11:40 70.2 °F /  21.2 °C 38.1 °F /  3.4 °C 30.33in /  1027hPa NE 6.9mph /  11.1km/h 14.0mph /  22.5km/h 31% 0.00in /  0mm 680.0 W/m2
11:46 70.2 °F /  21.2 °C 38.1 °F /  3.4 °C 30.32in /  1026.6hPa NNW 2.0mph /  3.2km/h 13.0mph /  20.9km/h 31% 0.00in /  0mm 689.0 W/m2
11:52 70.2 °F /  21.2 °C 38.1 °F /  3.4 °C 30.32in /  1026.6hPa NNW 4.0mph /  6.4km/h 4.0mph /  6.4km/h 31% 0.00in /  0mm 686.0 W/m2
11:59 70.3 °F /  21.3 °C 38.3 °F /  3.5 °C 30.31in /  1026.3hPa WNW 6.9mph /  11.1km/h 14.0mph /  22.5km/h 31% 0.00in /  0mm 687.0 W/m2
12:05 70.3 °F /  21.3 °C 38.3 °F /  3.5 °C 30.31in /  1026.3hPa Calm   6.0mph /  9.7km/h 31% 0.00in /  0mm 680.0 W/m2
12:11 70.5 °F /  21.4 °C 38.5 °F /  3.6 °C 30.31in /  1026.3hPa North 6.9mph /  11.1km/h 11.0mph /  17.7km/h 31% 0.00in /  0mm 680.0 W/m2
12:17 70.5 °F /  21.4 °C 38.5 °F /  3.6 °C 30.30in /  1026hPa West 0.9mph /  1.4km/h 7.0mph /  11.3km/h 31% 0.00in /  0mm 677.0 W/m2
12:23 70.9 °F /  21.6 °C 37.9 °F /  3.3 °C 30.30in /  1026hPa NNW 4.0mph /  6.4km/h 12.0mph /  19.3km/h 30% 0.00in /  0mm 675.0 W/m2
12:29 70.7 °F /  21.5 °C 37.8 °F /  3.2 °C 30.29in /  1025.6hPa NW 4.0mph /  6.4km/h 8.0mph /  12.9km/h 30% 0.00in /  0mm 671.0 W/m2
12:35 71.1 °F /  21.7 °C 38.1 °F /  3.4 °C 30.29in /  1025.6hPa Calm   9.0mph /  14.5km/h 30% 0.00in /  0mm 663.0 W/m2
12:41 71.2 °F /  21.8 °C 38.3 °F /  3.5 °C 30.29in /  1025.6hPa NW 4.0mph /  6.4km/h 14.0mph /  22.5km/h 30% 0.00in /  0mm 661.0 W/m2
12:47 71.2 °F /  21.8 °C 38.3 °F /  3.5 °C 30.29in /  1025.6hPa WNW 4.9mph /  7.9km/h 6.0mph /  9.7km/h 30% 0.00in /  0mm 649.0 W/m2
12:54 71.2 °F /  21.8 °C 38.3 °F /  3.5 °C 30.28in /  1025.3hPa Calm   8.0mph /  12.9km/h 30% 0.00in /  0mm 645.0 W/m2
13:00 71.4 °F /  21.9 °C 38.3 °F /  3.5 °C 30.28in /  1025.3hPa Calm   5.0mph /  8km/h 30% 0.00in /  0mm 633.0 W/m2
13:06 71.8 °F /  22.1 °C 37.8 °F /  3.2 °C 30.28in /  1025.3hPa WNW 0.9mph /  1.4km/h 13.0mph /  20.9km/h 29% 0.00in /  0mm 631.0 W/m2
13:18 71.8 °F /  22.1 °C 37.8 °F /  3.2 °C 30.28in /  1025.3hPa Calm   6.0mph /  9.7km/h 29% 0.00in /  0mm 608.0 W/m2
13:24 72.0 °F /  22.2 °C 37.9 °F /  3.3 °C 30.28in /  1025.3hPa NW 6.0mph /  9.7km/h 8.0mph /  12.9km/h 29% 0.00in /  0mm 603.0 W/m2
13:30 71.8 °F /  22.1 °C 37.8 °F /  3.2 °C 30.28in /  1025.3hPa NNE 2.0mph /  3.2km/h 9.0mph /  14.5km/h 29% 0.00in /  0mm 592.0 W/m2
13:37 71.8 °F /  22.1 °C 37.8 °F /  3.2 °C 30.27in /  1024.9hPa NW 2.9mph /  4.7km/h 7.0mph /  11.3km/h 29% 0.00in /  0mm 575.0 W/m2
13:43 72.0 °F /  22.2 °C 37.9 °F /  3.3 °C 30.27in /  1024.9hPa NNW 8.1mph /  13km/h 8.1mph /  13km/h 29% 0.00in /  0mm 566.0 W/m2
13:49 72.1 °F /  22.3 °C 38.1 °F /  3.4 °C 30.27in /  1024.9hPa North 4.9mph /  7.9km/h 10.0mph /  16.1km/h 29% 0.00in /  0mm 554.0 W/m2
13:55 72.0 °F /  22.2 °C 37.9 °F /  3.3 °C 30.26in /  1024.6hPa NW 4.0mph /  6.4km/h 6.0mph /  9.7km/h 29% 0.00in /  0mm 538.0 W/m2
14:01 72.1 °F /  22.3 °C 37.2 °F /  2.9 °C 30.26in /  1024.6hPa NNW 4.9mph /  7.9km/h 8.0mph /  12.9km/h 28% 0.00in /  0mm 524.0 W/m2
14:07 72.0 °F /  22.2 °C 37.9 °F /  3.3 °C 30.26in /  1024.6hPa Calm   5.0mph /  8km/h 29% 0.00in /  0mm 513.0 W/m2
14:13 72.1 °F /  22.3 °C 37.2 °F /  2.9 °C 30.26in /  1024.6hPa NNW 6.0mph /  9.7km/h 8.0mph /  12.9km/h 28% 0.00in /  0mm 504.0 W/m2
14:21 72.0 °F /  22.2 °C 37.0 °F /  2.8 °C 30.26in /  1024.6hPa North 2.0mph /  3.2km/h 4.0mph /  6.4km/h 28% 0.00in /  0mm 487.0 W/m2
14:28 72.1 °F /  22.3 °C 37.2 °F /  2.9 °C 30.25in /  1024.3hPa NNE 6.0mph /  9.7km/h 8.0mph /  12.9km/h 28% 0.00in /  0mm 461.0 W/m2
14:34 72.0 °F /  22.2 °C 37.0 °F /  2.8 °C 30.26in /  1024.6hPa SW 0.9mph /  1.4km/h 9.0mph /  14.5km/h 28% 0.00in /  0mm 448.0 W/m2
14:40 72.1 °F /  22.3 °C 37.2 °F /  2.9 °C 30.25in /  1024.3hPa NNE 4.0mph /  6.4km/h 4.0mph /  6.4km/h 28% 0.00in /  0mm 434.0 W/m2
14:46 72.3 °F /  22.4 °C 36.5 °F /  2.5 °C 30.25in /  1024.3hPa West 4.9mph /  7.9km/h 6.0mph /  9.7km/h 27% 0.00in /  0mm 418.0 W/m2
14:52 72.7 °F /  22.6 °C 36.9 °F /  2.7 °C 30.25in /  1024.3hPa Calm   4.0mph /  6.4km/h 27% 0.00in /  0mm 401.0 W/m2
14:58 72.7 °F /  22.6 °C 36.9 °F /  2.7 °C 30.26in /  1024.6hPa Calm   4.0mph /  6.4km/h 27% 0.00in /  0mm 383.0 W/m2
15:04 72.7 °F /  22.6 °C 35.8 °F /  2.1 °C 30.26in /  1024.6hPa Calm   5.0mph /  8km/h 26% 0.00in /  0mm 366.0 W/m2
15:10 72.3 °F /  22.4 °C 35.6 °F /  2 °C 30.26in /  1024.6hPa NNE 2.0mph /  3.2km/h 6.0mph /  9.7km/h 26% 0.00in /  0mm 348.0 W/m2
15:17 72.1 °F /  22.3 °C 36.3 °F /  2.4 °C 30.25in /  1024.3hPa NNW 4.0mph /  6.4km/h 6.0mph /  9.7km/h 27% 0.00in /  0mm 327.0 W/m2
15:23 72.0 °F /  22.2 °C 36.1 °F /  2.3 °C 30.25in /  1024.3hPa WNW 2.0mph /  3.2km/h 5.0mph /  8km/h 27% 0.00in /  0mm 47.0 W/m2
15:29 71.8 °F /  22.1 °C 36.0 °F /  2.2 °C 30.25in /  1024.3hPa NW 4.9mph /  7.9km/h 10.0mph /  16.1km/h 27% 0.00in /  0mm 44.0 W/m2
15:35 71.4 °F /  21.9 °C 36.7 °F /  2.6 °C 30.25in /  1024.3hPa North 0.9mph /  1.4km/h 4.0mph /  6.4km/h 28% 0.00in /  0mm 42.0 W/m2
15:41 71.1 °F /  21.7 °C 36.3 °F /  2.4 °C 30.25in /  1024.3hPa Calm   7.0mph /  11.3km/h 28% 0.00in /  0mm 40.0 W/m2
15:47 70.9 °F /  21.6 °C 36.1 °F /  2.3 °C 30.25in /  1024.3hPa North 4.9mph /  7.9km/h 6.0mph /  9.7km/h 28% 0.00in /  0mm 39.0 W/m2
15:53 70.5 °F /  21.4 °C 36.7 °F /  2.6 °C 30.26in /  1024.6hPa North 4.0mph /  6.4km/h 10.0mph /  16.1km/h 29% 0.00in /  0mm 35.0 W/m2
15:59 70.3 °F /  21.3 °C 36.5 °F /  2.5 °C 30.26in /  1024.6hPa Calm   3.0mph /  4.8km/h 29% 0.00in /  0mm 32.0 W/m2
16:05 70.0 °F /  21.1 °C 35.4 °F /  1.9 °C 30.26in /  1024.6hPa SW 0.9mph /  1.4km/h 8.0mph /  12.9km/h 28% 0.00in /  0mm 26.0 W/m2
16:12 69.6 °F /  20.9 °C 36.0 °F /  2.2 °C 30.25in /  1024.3hPa NNW 6.0mph /  9.7km/h 7.0mph /  11.3km/h 29% 0.00in /  0mm 25.0 W/m2
16:18 69.4 °F /  20.8 °C 35.8 °F /  2.1 °C 30.26in /  1024.6hPa Calm   3.0mph /  4.8km/h 29% 0.00in /  0mm 23.0 W/m2
16:24 69.3 °F /  20.7 °C 35.6 °F /  2 °C 30.26in /  1024.6hPa North 2.0mph /  3.2km/h 8.0mph /  12.9km/h 29% 0.00in /  0mm 21.0 W/m2
16:30 69.1 °F /  20.6 °C 36.3 °F /  2.4 °C 30.26in /  1024.6hPa Calm   6.0mph /  9.7km/h 30% 0.00in /  0mm 19.0 W/m2
16:36 68.7 °F /  20.4 °C 36.0 °F /  2.2 °C 30.26in /  1024.6hPa NNW 2.9mph /  4.7km/h 5.0mph /  8km/h 30% 0.00in /  0mm 18.0 W/m2
16:42 68.5 °F /  20.3 °C 36.0 °F /  2.2 °C 30.26in /  1024.6hPa Calm   4.0mph /  6.4km/h 30% 0.00in /  0mm 16.0 W/m2
16:48 68.2 °F /  20.1 °C 36.3 °F /  2.4 °C 30.26in /  1024.6hPa Calm   4.0mph /  6.4km/h 31% 0.00in /  0mm 14.0 W/m2
16:55 68.0 °F /  20 °C 36.3 °F /  2.4 °C 30.26in /  1024.6hPa Calm   2.0mph /  3.2km/h 31% 0.00in /  0mm 12.0 W/m2
17:01 67.6 °F /  19.8 °C 36.0 °F /  2.2 °C 30.26in /  1024.6hPa North 0.9mph /  1.4km/h 4.0mph /  6.4km/h 31% 0.00in /  0mm 11.0 W/m2
17:07 67.5 °F /  19.7 °C 35.8 °F /  2.1 °C 30.26in /  1024.6hPa Calm   2.0mph /  3.2km/h 31% 0.00in /  0mm 7.0 W/m2
17:13 67.3 °F /  19.6 °C 36.5 °F /  2.5 °C 30.27in /  1024.9hPa NNW 0.9mph /  1.4km/h 1.0mph /  1.6km/h 32% 0.00in /  0mm 0.0 W/m2
17:19 66.7 °F /  19.3 °C 36.0 °F /  2.2 °C 30.27in /  1024.9hPa Calm   1.0mph /  1.6km/h 32% 0.00in /  0mm 0.0 W/m2
17:25 66.2 °F /  19 °C 36.3 °F /  2.4 °C 30.27in /  1024.9hPa Calm     33% 0.00in /  0mm 0.0 W/m2
17:31 65.7 °F /  18.7 °C 36.5 °F /  2.5 °C 30.27in /  1024.9hPa Calm     34% 0.00in /  0mm 0.0 W/m2
17:38 65.1 °F /  18.4 °C 36.9 °F /  2.7 °C 30.27in /  1024.9hPa Calm     35% 0.00in /  0mm 0.0 W/m2
17:43 64.4 °F /  18 °C 36.1 °F /  2.3 °C 30.27in /  1024.9hPa Calm     35% 0.00in /  0mm 0.0 W/m2
17:50 63.7 °F /  17.6 °C 36.1 °F /  2.3 °C 30.28in /  1025.3hPa Calm     36% 0.00in /  0mm 0.0 W/m2
17:56 62.8 °F /  17.1 °C 36.1 °F /  2.3 °C 30.28in /  1025.3hPa Calm     37% 0.00in /  0mm 0.0 W/m2
18:02 62.1 °F /  16.7 °C 36.1 °F /  2.3 °C 30.28in /  1025.3hPa Calm     38% 0.00in /  0mm 0.0 W/m2
18:08 61.3 °F /  16.3 °C 36.9 °F /  2.7 °C 30.28in /  1025.3hPa Calm     40% 0.00in /  0mm 0.0 W/m2
18:14 60.6 °F /  15.9 °C 36.1 °F /  2.3 °C 30.28in /  1025.3hPa Calm     40% 0.00in /  0mm 0.0 W/m2
18:20 60.1 °F /  15.6 °C 36.3 °F /  2.4 °C 30.29in /  1025.6hPa Calm     41% 0.00in /  0mm 0.0 W/m2
18:26 59.4 °F /  15.2 °C 36.3 °F /  2.4 °C 30.29in /  1025.6hPa Calm     42% 0.00in /  0mm 0.0 W/m2
18:32 58.6 °F /  14.8 °C 35.6 °F /  2 °C 30.29in /  1025.6hPa Calm     42% 0.00in /  0mm 0.0 W/m2
18:40 58.3 °F /  14.6 °C 36.5 °F /  2.5 °C 30.29in /  1025.6hPa Calm     44% 0.00in /  0mm 0.0 W/m2
18:45 57.6 °F /  14.2 °C 35.8 °F /  2.1 °C 30.29in /  1025.6hPa Calm     44% 0.00in /  0mm 0.0 W/m2
18:46 57.4 °F /  14.1 °C 35.6 °F /  2 °C 30.29in /  1025.6hPa Calm     44% 0.00in /  0mm 0.0 W/m2
18:51 57.0 °F /  13.9 °C 35.2 °F /  1.8 °C 30.29in /  1025.6hPa Calm     44% 0.00in /  0mm 0.0 W/m2
18:56 56.5 °F /  13.6 °C 35.4 °F /  1.9 °C 30.29in /  1025.6hPa Calm     45% 0.00in /  0mm 0.0 W/m2
19:00 56.3 °F /  13.5 °C 35.2 °F /  1.8 °C 30.29in /  1025.6hPa Calm     45% 0.00in /  0mm 0.0 W/m2
19:06 55.8 °F /  13.2 °C 34.7 °F /  1.5 °C 30.29in /  1025.6hPa Calm     45% 0.00in /  0mm 0.0 W/m2
19:12 55.2 °F /  12.9 °C 35.4 °F /  1.9 °C 30.29in /  1025.6hPa Calm     47% 0.00in /  0mm 0.0 W/m2
19:21 54.9 °F /  12.7 °C 35.1 °F /  1.7 °C 30.30in /  1026hPa Calm     47% 0.00in /  0mm 0.0 W/m2
19:26 54.3 °F /  12.4 °C 34.5 °F /  1.4 °C 30.30in /  1026hPa Calm     47% 0.00in /  0mm 0.0 W/m2
19:32 54.1 °F /  12.3 °C 34.9 °F /  1.6 °C 30.30in /  1026hPa Calm     48% 0.00in /  0mm 0.0 W/m2
19:40 53.8 °F /  12.1 °C 34.5 °F /  1.4 °C 30.31in /  1026.3hPa Calm     48% 0.00in /  0mm 0.0 W/m2
19:45 53.6 °F /  12 °C 34.9 °F /  1.6 °C 30.31in /  1026.3hPa Calm     49% 0.00in /  0mm 0.0 W/m2
19:50 53.2 °F /  11.8 °C 35.1 °F /  1.7 °C 30.31in /  1026.3hPa Calm     50% 0.00in /  0mm 0.0 W/m2
19:56 53.1 °F /  11.7 °C 34.9 °F /  1.6 °C 30.31in /  1026.3hPa Calm     50% 0.00in /  0mm 0.0 W/m2
20:04 52.9 °F /  11.6 °C 35.2 °F /  1.8 °C 30.32in /  1026.6hPa Calm   1.0mph /  1.6km/h 51% 0.00in /  0mm 0.0 W/m2
20:10 52.7 °F /  11.5 °C 34.5 °F /  1.4 °C 30.32in /  1026.6hPa Calm     50% 0.00in /  0mm 0.0 W/m2
20:16 52.9 °F /  11.6 °C 34.7 °F /  1.5 °C 30.32in /  1026.6hPa Calm   2.0mph /  3.2km/h 50% 0.00in /  0mm 0.0 W/m2
20:23 52.9 °F /  11.6 °C 34.7 °F /  1.5 °C 30.33in /  1027hPa Calm     50% 0.00in /  0mm 0.0 W/m2
20:29 52.9 °F /  11.6 °C 34.7 °F /  1.5 °C 30.33in /  1027hPa Calm   1.0mph /  1.6km/h 50% 0.00in /  0mm 0.0 W/m2
20:35 52.9 °F /  11.6 °C 34.7 °F /  1.5 °C 30.33in /  1027hPa Calm   2.0mph /  3.2km/h 50% 0.00in /  0mm 0.0 W/m2
20:41 52.5 °F /  11.4 °C 34.9 °F /  1.6 °C 30.33in /  1027hPa Calm     51% 0.00in /  0mm 0.0 W/m2
20:47 52.5 °F /  11.4 °C 34.9 °F /  1.6 °C 30.33in /  1027hPa ESE 0.9mph /  1.4km/h 3.0mph /  4.8km/h 51% 0.00in /  0mm 0.0 W/m2
20:55 52.2 °F /  11.2 °C 34.5 °F /  1.4 °C 30.33in /  1027hPa Calm   2.0mph /  3.2km/h 51% 0.00in /  0mm 0.0 W/m2
21:01 52.2 °F /  11.2 °C 35.1 °F /  1.7 °C 30.33in /  1027hPa Calm   3.0mph /  4.8km/h 52% 0.00in /  0mm 0.0 W/m2
21:21 52.0 °F /  11.1 °C 34.9 °F /  1.6 °C 30.35in /  1027.7hPa Calm   1.0mph /  1.6km/h 52% 0.00in /  0mm 0.0 W/m2
21:27 52.0 °F /  11.1 °C 34.9 °F /  1.6 °C 30.35in /  1027.7hPa Calm     52% 0.00in /  0mm 0.0 W/m2
21:33 52.0 °F /  11.1 °C 34.9 °F /  1.6 °C 30.35in /  1027.7hPa Calm   1.0mph /  1.6km/h 52% 0.00in /  0mm 0.0 W/m2
21:39 52.0 °F /  11.1 °C 34.9 °F /  1.6 °C 30.36in /  1028hPa Calm     52% 0.00in /  0mm 0.0 W/m2
21:45 52.0 °F /  11.1 °C 34.9 °F /  1.6 °C 30.35in /  1027.7hPa Calm   1.0mph /  1.6km/h 52% 0.00in /  0mm 0.0 W/m2
21:51 51.8 °F /  11 °C 34.7 °F /  1.5 °C 30.35in /  1027.7hPa Calm   2.0mph /  3.2km/h 52% 0.00in /  0mm 0.0 W/m2
21:58 51.8 °F /  11 °C 34.7 °F /  1.5 °C 30.35in /  1027.7hPa Calm   1.0mph /  1.6km/h 52% 0.00in /  0mm 0.0 W/m2
22:04 51.6 °F /  10.9 °C 34.5 °F /  1.4 °C 30.35in /  1027.7hPa Calm     52% 0.00in /  0mm 0.0 W/m2
22:10 51.4 °F /  10.8 °C 34.3 °F /  1.3 °C 30.35in /  1027.7hPa Calm   1.0mph /  1.6km/h 52% 0.00in /  0mm 0.0 W/m2
22:16 51.3 °F /  10.7 °C 34.7 °F /  1.5 °C 30.36in /  1028hPa Calm   2.0mph /  3.2km/h 53% 0.00in /  0mm 0.0 W/m2
22:22 51.1 °F /  10.6 °C 34.5 °F /  1.4 °C 30.36in /  1028hPa Calm     53% 0.00in /  0mm 0.0 W/m2
22:28 50.4 °F /  10.2 °C 33.8 °F /  1 °C 30.37in /  1028.3hPa Calm     53% 0.00in /  0mm 0.0 W/m2
22:34 49.8 °F /  9.9 °C 33.8 °F /  1 °C 30.37in /  1028.3hPa Calm   1.0mph /  1.6km/h 54% 0.00in /  0mm 0.0 W/m2
22:41 49.6 °F /  9.8 °C 34.2 °F /  1.2 °C 30.36in /  1028hPa Calm     55% 0.00in /  0mm 0.0 W/m2
22:47 49.5 °F /  9.7 °C 34.3 °F /  1.3 °C 30.36in /  1028hPa Calm     56% 0.00in /  0mm 0.0 W/m2
22:53 49.3 °F /  9.6 °C 34.2 °F /  1.2 °C 30.36in /  1028hPa Calm     56% 0.00in /  0mm 0.0 W/m2
22:59 48.9 °F /  9.4 °C 34.3 °F /  1.3 °C 30.36in /  1028hPa Calm     57% 0.00in /  0mm 0.0 W/m2
23:05 48.7 °F /  9.3 °C 34.7 °F /  1.5 °C 30.36in /  1028hPa Calm     58% 0.00in /  0mm 0.0 W/m2
23:11 48.6 °F /  9.2 °C 34.5 °F /  1.4 °C 30.36in /  1028hPa Calm     58% 0.00in /  0mm 0.0 W/m2
23:17 48.6 °F /  9.2 °C 34.9 °F /  1.6 °C 30.35in /  1027.7hPa Calm     59% 0.00in /  0mm 0.0 W/m2
23:23 48.4 °F /  9.1 °C 34.7 °F /  1.5 °C 30.35in /  1027.7hPa Calm   1.0mph /  1.6km/h 59% 0.00in /  0mm 0.0 W/m2
23:29 48.4 °F /  9.1 °C 34.7 °F /  1.5 °C 30.35in /  1027.7hPa Calm   1.0mph /  1.6km/h 59% 0.00in /  0mm 0.0 W/m2
23:35 48.4 °F /  9.1 °C 34.3 °F /  1.3 °C 30.36in /  1028hPa ENE 0.9mph /  1.4km/h 1.0mph /  1.6km/h 58% 0.00in /  0mm 0.0 W/m2
23:41 48.6 °F /  9.2 °C 34.5 °F /  1.4 °C 30.36in /  1028hPa NE 0.9mph /  1.4km/h 3.0mph /  4.8km/h 58% 0.00in /  0mm 0.0 W/m2
23:47 48.6 °F /  9.2 °C 34.5 °F /  1.4 °C 30.36in /  1028hPa Calm     58% 0.00in /  0mm 0.0 W/m2
23:53 48.7 °F /  9.3 °C 34.7 °F /  1.5 °C 30.36in /  1028hPa Calm   7.0mph /  11.3km/h 58% 0.00in /  0mm 0.0 W/m2
Olympia, Windhoek, Namibia
Compliments of Weather Underground - 3 mb